Time;durP1;ratioP1;P1;durP2;ratioP2;P2;SDS_P1;SDS_P2;PMS_P1;PMS_P2;Temp;Humidity;BMP_temperature;BMP_pressure;BME280_temperature;BME280_humidity;BME280_pressure;Samples;Min_cycle;Max_cycle;Signal;HPM_P1;HPM_P2
2021/01/21 00:01:48;;;;;;;;;;;21.60;31.50;;;;;;486498;244;1200;-71
2021/01/21 00:03:49;;;;;;;;;;;21.60;31.50;;;;;;486512;243;1207;-71
2021/01/21 00:05:50;;;;;;;;;;;21.50;31.40;;;;;;486500;244;2115;-71
2021/01/21 00:07:52;;;;;;;;;;;21.50;31.40;;;;;;486586;243;1135;-71
2021/01/21 00:09:53;;;;;;;;;;;21.60;31.50;;;;;;486565;244;1174;-71
2021/01/21 00:11:54;;;;;;;;;;;21.50;31.40;;;;;;486548;244;1138;-72
2021/01/21 00:13:55;;;;;;;;;;;21.50;31.50;;;;;;486557;244;1175;-71
2021/01/21 00:15:57;;;;;;;;;;;21.50;31.40;;;;;;486569;244;1024;-71
2021/01/21 00:18:00;;;;;;;;;;;21.50;31.40;;;;;;486582;244;1150;-71
2021/01/21 00:19:59;;;;;;;;;;;21.50;31.40;;;;;;486422;244;2209;-72
2021/01/21 00:22:01;;;;;;;;;;;21.50;31.40;;;;;;486531;244;1281;-71
2021/01/21 00:24:02;;;;;;;;;;;21.50;31.50;;;;;;486527;244;1025;-72
2021/01/21 00:26:03;;;;;;;;;;;21.50;31.50;;;;;;486505;244;2194;-72
2021/01/21 00:28:04;;;;;;;;;;;21.50;31.50;;;;;;486492;244;1148;-71
2021/01/21 00:30:06;;;;;;;;;;;21.50;31.40;;;;;;486548;244;1030;-71
2021/01/21 00:32:07;;;;;;;;;;;21.50;31.50;;;;;;486508;244;1209;-71
2021/01/21 00:34:08;;;;;;;;;;;21.40;31.50;;;;;;486524;244;974;-72
2021/01/21 00:36:10;;;;;;;;;;;21.50;31.50;;;;;;486501;244;1224;-71
2021/01/21 00:38:11;;;;;;;;;;;21.50;31.50;;;;;;486529;244;1139;-71
2021/01/21 00:40:12;;;;;;;;;;;21.50;31.10;;;;;;486569;244;1183;-71
2021/01/21 00:42:13;;;;;;;;;;;21.50;30.80;;;;;;486528;244;1126;-71
2021/01/21 00:44:15;;;;;;;;;;;21.50;30.60;;;;;;486549;244;942;-71
2021/01/21 00:46:16;;;;;;;;;;;21.50;30.30;;;;;;486480;244;2128;-71
2021/01/21 00:48:17;;;;;;;;;;;21.40;30.10;;;;;;486470;244;962;-71
2021/01/21 00:50:18;;;;;;;;;;;21.40;30.00;;;;;;486526;244;964;-71
2021/01/21 00:52:20;;;;;;;;;;;21.40;30.50;;;;;;486546;244;1326;-71
2021/01/21 00:54:21;;;;;;;;;;;21.40;31.20;;;;;;486550;244;1156;-72
2021/01/21 00:56:23;;;;;;;;;;;21.40;31.50;;;;;;486510;244;1327;-71
2021/01/21 00:58:25;;;;;;;;;;;21.40;31.70;;;;;;486451;245;2187;-72
2021/01/21 01:00:26;;;;;;;;;;;21.30;31.80;;;;;;486515;244;951;-71
2021/01/21 01:02:28;;;;;;;;;;;21.30;32.00;;;;;;486512;244;1185;-71
2021/01/21 01:04:29;;;;;;;;;;;21.30;32.10;;;;;;486558;244;968;-71
2021/01/21 01:06:30;;;;;;;;;;;21.30;32.30;;;;;;486527;244;2139;-72
2021/01/21 01:08:32;;;;;;;;;;;21.30;32.40;;;;;;486494;244;1061;-72
2021/01/21 01:10:33;;;;;;;;;;;21.30;32.50;;;;;;486486;244;1537;-72
2021/01/21 01:12:35;;;;;;;;;;;21.30;32.60;;;;;;486526;244;1180;-71
2021/01/21 01:14:35;;;;;;;;;;;21.30;32.70;;;;;;486428;245;2266;-71
2021/01/21 01:16:37;;;;;;;;;;;21.30;32.70;;;;;;486460;244;1214;-71
2021/01/21 01:18:38;;;;;;;;;;;21.30;32.80;;;;;;486488;244;1086;-71
2021/01/21 01:20:39;;;;;;;;;;;21.30;32.60;;;;;;486542;244;1116;-71
2021/01/21 01:22:41;;;;;;;;;;;21.30;32.10;;;;;;486512;244;1221;-71
2021/01/21 01:24:42;;;;;;;;;;;21.20;31.80;;;;;;486588;244;1109;-71
2021/01/21 01:26:46;;;;;;;;;;;21.30;31.50;;;;;;486612;244;2128;-71
2021/01/21 01:28:47;;;;;;;;;;;21.20;31.10;;;;;;486582;244;969;-71
2021/01/21 01:30:48;;;;;;;;;;;21.30;30.90;;;;;;486516;244;1183;-71
2021/01/21 01:32:50;;;;;;;;;;;21.20;30.70;;;;;;486515;244;1226;-71
2021/01/21 01:34:51;;;;;;;;;;;21.20;30.50;;;;;;486568;244;997;-71
2021/01/21 01:36:52;;;;;;;;;;;21.20;30.20;;;;;;486530;244;1047;-71
2021/01/21 01:38:54;;;;;;;;;;;21.20;30.10;;;;;;486566;244;958;-71
2021/01/21 01:40:55;;;;;;;;;;;21.20;30.00;;;;;;486521;244;1163;-71
2021/01/21 01:42:56;;;;;;;;;;;21.20;29.90;;;;;;486564;244;945;-71
2021/01/21 01:44:58;;;;;;;;;;;21.20;29.70;;;;;;486555;244;1001;-71
2021/01/21 01:46:59;;;;;;;;;;;21.20;29.70;;;;;;486508;244;2187;-71
2021/01/21 01:49:00;;;;;;;;;;;21.20;29.50;;;;;;486582;244;943;-71
2021/01/21 01:51:01;;;;;;;;;;;21.20;29.40;;;;;;486542;244;976;-71
2021/01/21 01:53:03;;;;;;;;;;;21.20;29.30;;;;;;486563;240;956;-71
2021/01/21 01:55:05;;;;;;;;;;;21.20;29.30;;;;;;486570;244;969;-71
2021/01/21 01:57:05;;;;;;;;;;;21.10;29.20;;;;;;486537;244;2105;-72
2021/01/21 01:59:07;;;;;;;;;;;21.20;29.10;;;;;;486561;244;945;-71
2021/01/21 02:01:08;;;;;;;;;;;21.20;29.00;;;;;;486574;244;968;-71
2021/01/21 02:03:09;;;;;;;;;;;21.20;28.90;;;;;;486566;244;939;-72
2021/01/21 02:05:10;;;;;;;;;;;21.20;28.80;;;;;;486571;244;973;-71
2021/01/21 02:07:12;;;;;;;;;;;21.30;28.80;;;;;;486496;244;2140;-71
2021/01/21 02:09:13;;;;;;;;;;;21.50;28.50;;;;;;486507;244;957;-71
2021/01/21 02:11:14;;;;;;;;;;;21.50;28.30;;;;;;486584;244;1263;-71
2021/01/21 02:13:16;;;;;;;;;;;21.50;28.30;;;;;;486586;244;1186;-71
2021/01/21 02:15:17;;;;;;;;;;;21.40;28.20;;;;;;486541;244;1077;-71
2021/01/21 02:17:19;;;;;;;;;;;21.30;28.20;;;;;;486507;244;1237;-71
2021/01/21 02:19:20;;;;;;;;;;;21.30;28.30;;;;;;486593;244;953;-71
2021/01/21 02:21:21;;;;;;;;;;;21.30;28.20;;;;;;486557;244;973;-71
2021/01/21 02:23:22;;;;;;;;;;;21.30;28.10;;;;;;486570;244;1154;-71
2021/01/21 02:25:24;;;;;;;;;;;21.20;28.10;;;;;;486515;244;925;-71
2021/01/21 02:27:25;;;;;;;;;;;21.20;28.00;;;;;;486474;244;2208;-71
2021/01/21 02:29:26;;;;;;;;;;;21.20;28.10;;;;;;486552;244;1214;-71
2021/01/21 02:31:28;;;;;;;;;;;21.20;27.90;;;;;;486420;244;954;-71
2021/01/21 02:33:29;;;;;;;;;;;21.20;27.90;;;;;;486454;244;1102;-71
2021/01/21 02:35:30;;;;;;;;;;;21.20;27.90;;;;;;486513;244;939;-72
2021/01/21 02:37:32;;;;;;;;;;;21.20;27.90;;;;;;486489;244;1360;-71
2021/01/21 02:39:33;;;;;;;;;;;21.20;27.80;;;;;;486553;244;1021;-71
2021/01/21 02:41:34;;;;;;;;;;;21.10;27.80;;;;;;486555;244;1054;-71
2021/01/21 02:43:35;;;;;;;;;;;21.30;27.70;;;;;;486551;244;1178;-71
2021/01/21 02:45:37;;;;;;;;;;;21.30;27.60;;;;;;486545;244;1094;-71
2021/01/21 02:47:38;;;;;;;;;;;21.30;27.60;;;;;;486536;244;2172;-71
2021/01/21 02:49:40;;;;;;;;;;;21.20;27.60;;;;;;486611;244;992;-71
2021/01/21 02:51:41;;;;;;;;;;;21.20;27.60;;;;;;486513;244;1231;-71
2021/01/21 02:53:42;;;;;;;;;;;21.20;27.60;;;;;;486495;244;926;-71
2021/01/21 02:55:43;;;;;;;;;;;21.20;27.60;;;;;;486506;244;1345;-71
2021/01/21 02:57:45;;;;;;;;;;;21.20;27.60;;;;;;486496;244;1213;-71
2021/01/21 02:59:46;;;;;;;;;;;21.10;27.60;;;;;;486504;244;965;-71
2021/01/21 03:01:47;;;;;;;;;;;21.10;27.50;;;;;;486460;244;1109;-71
2021/01/21 03:03:48;;;;;;;;;;;21.10;27.50;;;;;;486508;244;996;-71
2021/01/21 03:05:50;;;;;;;;;;;21.20;27.50;;;;;;486512;244;957;-71
2021/01/21 03:07:51;;;;;;;;;;;21.40;27.30;;;;;;486551;244;2119;-71
2021/01/21 03:09:52;;;;;;;;;;;21.40;27.20;;;;;;486592;244;1121;-71
2021/01/21 03:11:54;;;;;;;;;;;21.30;27.20;;;;;;486523;244;1053;-71
2021/01/21 03:13:55;;;;;;;;;;;21.20;27.20;;;;;;486490;244;1225;-71
2021/01/21 03:15:56;;;;;;;;;;;21.20;27.30;;;;;;486515;244;1091;-71
2021/01/21 03:17:57;;;;;;;;;;;21.20;27.30;;;;;;486547;244;987;-71
2021/01/21 03:19:59;;;;;;;;;;;21.20;27.30;;;;;;486569;244;1070;-71
2021/01/21 03:22:00;;;;;;;;;;;21.20;27.30;;;;;;486500;244;1026;-71
2021/01/21 03:24:01;;;;;;;;;;;21.30;27.20;;;;;;486562;244;980;-71
2021/01/21 03:26:02;;;;;;;;;;;21.20;27.20;;;;;;486505;244;2147;-71
2021/01/21 03:28:04;;;;;;;;;;;21.30;27.20;;;;;;486526;244;1200;-71
2021/01/21 03:30:05;;;;;;;;;;;21.50;26.90;;;;;;486566;244;939;-71
2021/01/21 03:32:06;;;;;;;;;;;21.60;26.90;;;;;;486510;244;1096;-71
2021/01/21 03:34:08;;;;;;;;;;;21.50;26.90;;;;;;486602;244;927;-71
2021/01/21 03:36:09;;;;;;;;;;;21.40;26.90;;;;;;486505;244;1349;-71
2021/01/21 03:38:10;;;;;;;;;;;21.40;27.00;;;;;;486484;244;1208;-71
2021/01/21 03:40:11;;;;;;;;;;;21.30;26.90;;;;;;486537;244;932;-71
2021/01/21 03:42:13;;;;;;;;;;;21.30;27.00;;;;;;486470;244;1214;-71
2021/01/21 03:44:14;;;;;;;;;;;21.30;27.00;;;;;;486538;244;1171;-71
2021/01/21 03:46:15;;;;;;;;;;;21.40;26.90;;;;;;486502;244;2198;-71
2021/01/21 03:48:17;;;;;;;;;;;21.50;26.70;;;;;;486580;244;971;-72
2021/01/21 03:50:18;;;;;;;;;;;21.60;26.60;;;;;;486550;244;1091;-71
2021/01/21 03:52:19;;;;;;;;;;;21.50;26.60;;;;;;486530;244;967;-71
2021/01/21 03:54:20;;;;;;;;;;;21.40;26.60;;;;;;486549;244;1102;-71
2021/01/21 03:56:22;;;;;;;;;;;21.40;26.70;;;;;;486507;244;931;-71
2021/01/21 03:58:23;;;;;;;;;;;21.30;26.70;;;;;;486500;244;1277;-71
2021/01/21 04:00:25;;;;;;;;;;;21.30;26.70;;;;;;486571;244;1013;-71
2021/01/21 04:02:26;;;;;;;;;;;21.30;26.70;;;;;;486489;244;1149;-71
2021/01/21 04:04:27;;;;;;;;;;;21.30;26.70;;;;;;486550;244;1153;-71
2021/01/21 04:06:28;;;;;;;;;;;21.30;26.70;;;;;;486518;244;2179;-71
2021/01/21 04:08:30;;;;;;;;;;;21.20;26.70;;;;;;486578;244;938;-71
2021/01/21 04:10:31;;;;;;;;;;;21.20;26.70;;;;;;486587;244;1219;-71
2021/01/21 04:12:32;;;;;;;;;;;21.20;26.70;;;;;;486549;244;1100;-72
2021/01/21 04:14:33;;;;;;;;;;;21.20;26.60;;;;;;486596;244;1242;-71
2021/01/21 04:16:35;;;;;;;;;;;21.20;26.70;;;;;;486587;244;1030;-71
2021/01/21 04:18:36;;;;;;;;;;;21.20;26.70;;;;;;486597;244;952;-71
2021/01/21 04:20:37;;;;;;;;;;;21.20;26.70;;;;;;486611;244;1027;-71
2021/01/21 04:22:39;;;;;;;;;;;21.20;26.70;;;;;;486513;244;1222;-71
2021/01/21 04:24:40;;;;;;;;;;;21.30;26.60;;;;;;486518;244;960;-71
2021/01/21 04:26:41;;;;;;;;;;;21.30;26.60;;;;;;486549;244;2202;-71
2021/01/21 04:28:43;;;;;;;;;;;21.20;26.60;;;;;;486531;244;1198;-71
2021/01/21 04:30:44;;;;;;;;;;;21.20;26.60;;;;;;486546;244;1067;-72
2021/01/21 04:32:45;;;;;;;;;;;21.20;26.60;;;;;;486573;244;951;-71
2021/01/21 04:34:47;;;;;;;;;;;21.20;26.60;;;;;;486521;244;969;-71
2021/01/21 04:36:48;;;;;;;;;;;21.20;26.60;;;;;;486498;244;1103;-71
2021/01/21 04:38:49;;;;;;;;;;;21.20;26.60;;;;;;486519;244;1260;-71
2021/01/21 04:40:50;;;;;;;;;;;21.20;26.60;;;;;;486530;244;1201;-71
2021/01/21 04:42:52;;;;;;;;;;;21.20;26.60;;;;;;486488;244;1235;-71
2021/01/21 04:44:53;;;;;;;;;;;21.10;26.60;;;;;;486552;244;1244;-71
2021/01/21 04:46:54;;;;;;;;;;;21.20;26.50;;;;;;486498;244;2131;-71
2021/01/21 04:48:55;;;;;;;;;;;21.40;26.40;;;;;;486516;244;1244;-72
2021/01/21 04:50:57;;;;;;;;;;;21.40;26.30;;;;;;486508;244;933;-71
2021/01/21 04:52:58;;;;;;;;;;;21.30;26.30;;;;;;486568;244;1273;-71
2021/01/21 04:54:59;;;;;;;;;;;21.30;26.40;;;;;;486554;244;929;-71
2021/01/21 04:57:01;;;;;;;;;;;21.30;26.40;;;;;;486536;244;1171;-71
2021/01/21 04:59:02;;;;;;;;;;;21.20;26.40;;;;;;486515;244;1172;-72
2021/01/21 05:01:03;;;;;;;;;;;21.30;26.40;;;;;;486565;244;950;-71
2021/01/21 05:03:04;;;;;;;;;;;21.30;26.40;;;;;;486478;244;1057;-71
2021/01/21 05:05:06;;;;;;;;;;;21.20;26.40;;;;;;486559;244;1008;-71
2021/01/21 05:07:07;;;;;;;;;;;21.20;26.40;;;;;;486459;244;2186;-72
2021/01/21 05:09:08;;;;;;;;;;;21.20;26.40;;;;;;486522;244;1031;-72
2021/01/21 05:11:10;;;;;;;;;;;21.20;26.40;;;;;;486461;244;2121;-72
2021/01/21 05:13:11;;;;;;;;;;;21.20;26.40;;;;;;486463;244;1244;-71
2021/01/21 05:15:12;;;;;;;;;;;21.20;26.40;;;;;;486532;244;1208;-71
2021/01/21 05:17:13;;;;;;;;;;;21.20;26.40;;;;;;486482;244;1239;-71
2021/01/21 05:19:15;;;;;;;;;;;21.20;26.40;;;;;;486576;244;1160;-72
2021/01/21 05:21:17;;;;;;;;;;;21.20;26.40;;;;;;486564;244;1025;-71
2021/01/21 05:23:18;;;;;;;;;;;21.20;26.40;;;;;;486471;244;944;-71
2021/01/21 05:25:19;;;;;;;;;;;21.20;26.40;;;;;;486427;244;975;-72
2021/01/21 05:27:21;;;;;;;;;;;21.20;26.30;;;;;;486394;244;2187;-71
2021/01/21 05:29:22;;;;;;;;;;;21.20;26.30;;;;;;486445;244;1180;-71
2021/01/21 05:31:23;;;;;;;;;;;21.20;26.30;;;;;;486445;244;1069;-71
2021/01/21 05:33:24;;;;;;;;;;;21.20;26.30;;;;;;486380;244;1025;-71
2021/01/21 05:35:26;;;;;;;;;;;21.10;26.30;;;;;;486342;244;1144;-71
2021/01/21 05:37:27;;;;;;;;;;;21.10;26.40;;;;;;486377;244;1165;-71
2021/01/21 05:39:28;;;;;;;;;;;21.10;26.40;;;;;;486431;244;1289;-71
2021/01/21 05:41:30;;;;;;;;;;;21.10;26.30;;;;;;486449;244;1122;-71
2021/01/21 05:43:31;;;;;;;;;;;21.40;26.30;;;;;;486452;244;1155;-71
2021/01/21 05:45:32;;;;;;;;;;;21.40;26.10;;;;;;486423;244;1173;-71
2021/01/21 05:47:34;;;;;;;;;;;21.40;26.10;;;;;;486353;244;2186;-71
2021/01/21 05:49:35;;;;;;;;;;;21.40;26.10;;;;;;486399;244;1312;-71
2021/01/21 05:51:36;;;;;;;;;;;21.30;26.20;;;;;;486381;244;1057;-71
2021/01/21 05:53:39;;;;;;;;;;;21.20;26.20;;;;;;486327;244;1140;-71
2021/01/21 05:55:39;;;;;;;;;;;21.20;26.20;;;;;;486281;244;1094;-71
2021/01/21 05:57:41;;;;;;;;;;;21.20;26.20;;;;;;486377;244;1297;-71
2021/01/21 05:59:42;;;;;;;;;;;21.20;26.20;;;;;;486420;244;1242;-71
2021/01/21 06:01:43;;;;;;;;;;;21.30;26.20;;;;;;486385;244;979;-71
2021/01/21 06:03:45;;;;;;;;;;;21.20;26.20;;;;;;486339;244;990;-71
2021/01/21 06:05:46;;;;;;;;;;;21.30;26.20;;;;;;486346;244;1135;-72
2021/01/21 06:07:47;;;;;;;;;;;21.30;26.20;;;;;;486289;244;2135;-72
2021/01/21 06:09:48;;;;;;;;;;;21.30;26.20;;;;;;486286;244;1036;-72
2021/01/21 06:11:50;;;;;;;;;;;21.30;26.10;;;;;;486271;244;1206;-71
2021/01/21 06:13:51;;;;;;;;;;;21.30;26.20;;;;;;486234;244;970;-71
2021/01/21 06:15:52;;;;;;;;;;;21.50;26.00;;;;;;486267;244;1319;-71
2021/01/21 06:17:53;;;;;;;;;;;21.50;26.00;;;;;;486284;244;1067;-71
2021/01/21 06:19:55;;;;;;;;;;;21.40;26.00;;;;;;486209;244;975;-71
2021/01/21 06:21:56;;;;;;;;;;;21.40;26.00;;;;;;486254;244;1064;-72
2021/01/21 06:23:57;;;;;;;;;;;21.40;26.10;;;;;;486335;244;1033;-72
2021/01/21 06:25:59;;;;;;;;;;;21.40;26.10;;;;;;486244;244;1057;-71
2021/01/21 06:28:00;;;;;;;;;;;21.40;26.10;;;;;;486120;244;2335;-72
2021/01/21 06:30:01;;;;;;;;;;;21.40;26.00;;;;;;486157;244;965;-71
2021/01/21 06:32:03;;;;;;;;;;;21.40;26.10;;;;;;486174;244;1441;-71
2021/01/21 06:34:04;;;;;;;;;;;21.40;26.10;;;;;;486285;244;1149;-71
2021/01/21 06:36:05;;;;;;;;;;;21.40;26.10;;;;;;486268;244;1031;-71
2021/01/21 06:38:07;;;;;;;;;;;21.40;26.10;;;;;;486217;244;1234;-71
2021/01/21 06:40:08;;;;;;;;;;;21.40;26.10;;;;;;486102;244;1109;-71
2021/01/21 06:42:10;;;;;;;;;;;21.40;26.00;;;;;;486187;244;1032;-71
2021/01/21 06:44:11;;;;;;;;;;;21.40;26.10;;;;;;486234;244;976;-71
2021/01/21 06:46:12;;;;;;;;;;;21.60;26.00;;;;;;486179;244;1337;-71
2021/01/21 06:48:13;;;;;;;;;;;21.60;26.00;;;;;;486269;244;2139;-71
2021/01/21 06:50:15;;;;;;;;;;;21.50;26.00;;;;;;486236;244;1174;-71
2021/01/21 06:52:16;;;;;;;;;;;21.50;26.00;;;;;;486247;244;1049;-71
2021/01/21 06:54:17;;;;;;;;;;;21.50;26.00;;;;;;486062;244;1021;-71
2021/01/21 06:56:19;;;;;;;;;;;21.50;26.10;;;;;;486057;244;1184;-71
2021/01/21 06:58:20;;;;;;;;;;;21.50;26.00;;;;;;486200;244;1122;-72
2021/01/21 07:00:21;;;;;;;;;;;21.50;26.00;;;;;;486215;244;1149;-71
2021/01/21 07:02:22;;;;;;;;;;;21.50;26.00;;;;;;486115;244;1226;-71
2021/01/21 07:04:26;;;;;;;;;;;21.50;26.00;;;;;;486102;244;1142;-72
2021/01/21 07:06:27;;;;;;;;;;;21.50;26.00;;;;;;486184;244;993;-71
2021/01/21 07:08:28;;;;;;;;;;;21.50;26.00;;;;;;486231;244;2108;-71
2021/01/21 07:10:29;;;;;;;;;;;21.50;25.90;;;;;;486211;244;1160;-71
2021/01/21 07:12:30;;;;;;;;;;;21.50;26.00;;;;;;486136;244;1201;-71
2021/01/21 07:14:32;;;;;;;;;;;21.50;25.90;;;;;;486176;244;1063;-71
2021/01/21 07:16:33;;;;;;;;;;;21.50;26.00;;;;;;486122;244;1179;-72
2021/01/21 07:18:34;;;;;;;;;;;21.50;26.00;;;;;;486280;244;1122;-72
2021/01/21 07:20:36;;;;;;;;;;;21.50;25.90;;;;;;486191;244;1056;-71
2021/01/21 07:22:37;;;;;;;;;;;21.50;25.90;;;;;;486180;244;1166;-71
2021/01/21 07:24:38;;;;;;;;;;;21.50;25.90;;;;;;486003;244;1152;-72
2021/01/21 07:26:39;;;;;;;;;;;21.50;25.90;;;;;;484409;244;5678;-72
2021/01/21 07:28:41;;;;;;;;;;;21.60;25.90;;;;;;482312;247;2181;-71
2021/01/21 07:30:42;;;;;;;;;;;21.60;25.80;;;;;;482293;247;1075;-71
2021/01/21 07:32:43;;;;;;;;;;;21.60;25.80;;;;;;482200;245;1197;-71
2021/01/21 07:34:45;;;;;;;;;;;21.60;25.80;;;;;;482571;247;967;-72
2021/01/21 07:36:46;;;;;;;;;;;21.60;25.80;;;;;;482478;247;1010;-71
2021/01/21 07:38:48;;;;;;;;;;;21.60;25.80;;;;;;482825;247;1085;-71
2021/01/21 07:40:49;;;;;;;;;;;21.60;25.90;;;;;;482619;247;993;-71
2021/01/21 07:42:50;;;;;;;;;;;21.60;25.90;;;;;;482605;247;1009;-72
2021/01/21 07:44:52;;;;;;;;;;;21.60;25.90;;;;;;482020;247;1109;-71
2021/01/21 07:46:53;;;;;;;;;;;21.60;25.80;;;;;;482045;247;1199;-71
2021/01/21 07:48:54;;;;;;;;;;;21.60;25.90;;;;;;482081;247;2137;-72
2021/01/21 07:50:56;;;;;;;;;;;21.60;25.80;;;;;;482198;247;1154;-71
2021/01/21 07:52:57;;;;;;;;;;;21.60;25.90;;;;;;482041;247;1112;-71
2021/01/21 07:54:58;;;;;;;;;;;21.60;25.90;;;;;;482082;247;1406;-71
2021/01/21 07:56:59;;;;;;;;;;;21.60;25.90;;;;;;482072;247;1093;-71
2021/01/21 07:59:01;;;;;;;;;;;21.60;25.90;;;;;;482089;247;1346;-72
2021/01/21 08:01:02;;;;;;;;;;;21.60;25.90;;;;;;482152;247;1222;-71
2021/01/21 08:03:03;;;;;;;;;;;21.60;25.90;;;;;;482116;247;1166;-71
2021/01/21 08:05:05;;;;;;;;;;;21.60;25.90;;;;;;482213;247;1138;-71
2021/01/21 08:07:06;;;;;;;;;;;21.70;25.90;;;;;;482208;247;1160;-72
2021/01/21 08:09:07;;;;;;;;;;;21.60;25.90;;;;;;482239;247;2122;-71
2021/01/21 08:11:08;;;;;;;;;;;21.60;25.90;;;;;;482249;247;1116;-71
2021/01/21 08:13:10;;;;;;;;;;;21.60;25.90;;;;;;482190;247;992;-71
2021/01/21 08:15:11;;;;;;;;;;;21.60;25.90;;;;;;482205;247;1146;-71
2021/01/21 08:17:12;;;;;;;;;;;21.60;25.90;;;;;;482197;247;1189;-72
2021/01/21 08:19:14;;;;;;;;;;;21.70;25.90;;;;;;482198;247;983;-71
2021/01/21 08:21:15;;;;;;;;;;;21.70;25.90;;;;;;482181;247;1049;-71
2021/01/21 08:23:16;;;;;;;;;;;21.70;25.90;;;;;;482203;247;1365;-71
2021/01/21 08:25:17;;;;;;;;;;;21.70;25.90;;;;;;481508;247;1069;-71
2021/01/21 08:27:19;;;;;;;;;;;21.70;26.00;;;;;;482184;247;1203;-71
2021/01/21 08:29:20;;;;;;;;;;;21.70;26.00;;;;;;482175;247;2181;-71
2021/01/21 08:31:22;;;;;;;;;;;22.00;25.80;;;;;;482230;247;1196;-71
2021/01/21 08:33:23;;;;;;;;;;;22.10;25.70;;;;;;482200;247;1278;-71
2021/01/21 08:35:24;;;;;;;;;;;22.00;25.70;;;;;;482120;247;1141;-71
2021/01/21 08:37:25;;;;;;;;;;;21.90;25.90;;;;;;482134;247;1237;-71
2021/01/21 08:39:27;;;;;;;;;;;21.80;25.90;;;;;;482151;247;1049;-72
2021/01/21 08:41:28;;;;;;;;;;;21.80;25.90;;;;;;481998;247;1442;-71
2021/01/21 08:43:29;;;;;;;;;;;21.80;26.00;;;;;;482231;247;1105;-71
2021/01/21 08:45:30;;;;;;;;;;;21.90;26.00;;;;;;482184;247;969;-72
2021/01/21 08:47:32;;;;;;;;;;;21.90;26.00;;;;;;482208;247;1226;-71
2021/01/21 08:49:34;;;;;;;;;;;21.90;26.00;;;;;;482199;247;2133;-71
2021/01/21 08:51:37;;;;;;;;;;;21.90;26.10;;;;;;482177;247;998;-72
2021/01/21 08:53:37;;;;;;;;;;;21.90;26.10;;;;;;481970;247;1963;-71
2021/01/21 08:55:38;;;;;;;;;;;22.00;26.10;;;;;;482142;247;974;-71
2021/01/21 08:57:39;;;;;;;;;;;22.00;26.10;;;;;;482198;247;1017;-71
2021/01/21 08:59:41;;;;;;;;;;;22.00;26.10;;;;;;482146;247;1126;-71
2021/01/21 09:01:42;;;;;;;;;;;22.00;26.20;;;;;;482270;247;2405;-72
2021/01/21 09:03:47;;;;;;;;;;;22.00;26.10;;;;;;482044;247;1282;-72
2021/01/21 09:05:46;;;;;;;;;;;22.00;26.20;;;;;;481852;247;2365;-71
2021/01/21 09:07:48;;;;;;;;;;;22.10;26.20;;;;;;482106;247;2266;-71
2021/01/21 09:09:49;;;;;;;;;;;22.20;26.20;;;;;;482138;247;2189;-71
2021/01/21 09:11:50;;;;;;;;;;;22.10;26.20;;;;;;482153;247;1229;-71
2021/01/21 09:13:51;;;;;;;;;;;22.10;26.30;;;;;;482272;247;983;-71
2021/01/21 09:15:55;;;;;;;;;;;22.10;26.30;;;;;;482212;247;957;-71
2021/01/21 09:17:54;;;;;;;;;;;22.20;26.30;;;;;;482167;247;2195;-71
2021/01/21 09:19:56;;;;;;;;;;;22.40;26.20;;;;;;482478;247;1042;-71
2021/01/21 09:21:57;;;;;;;;;;;22.40;26.20;;;;;;482500;247;1022;-71
2021/01/21 09:23:58;;;;;;;;;;;22.40;26.10;;;;;;482406;247;1043;-71
2021/01/21 09:25:59;;;;;;;;;;;22.40;26.30;;;;;;482433;247;1431;-71
2021/01/21 09:28:01;;;;;;;;;;;22.40;26.40;;;;;;482421;247;2208;-71
2021/01/21 09:30:02;;;;;;;;;;;22.40;26.40;;;;;;482357;247;1066;-71
2021/01/21 09:32:03;;;;;;;;;;;22.40;26.40;;;;;;482402;247;1015;-71
2021/01/21 09:34:04;;;;;;;;;;;22.40;26.30;;;;;;482326;247;1111;-71
2021/01/21 09:36:06;;;;;;;;;;;22.50;26.40;;;;;;482327;247;1103;-71
2021/01/21 09:38:07;;;;;;;;;;;22.40;26.30;;;;;;482343;247;1063;-71
2021/01/21 09:40:08;;;;;;;;;;;22.50;26.30;;;;;;482403;247;981;-71
2021/01/21 09:42:10;;;;;;;;;;;22.50;26.30;;;;;;482437;247;1118;-71
2021/01/21 09:44:11;;;;;;;;;;;22.60;26.20;;;;;;482465;247;999;-71
2021/01/21 09:46:12;;;;;;;;;;;22.60;26.20;;;;;;482395;247;1186;-72
2021/01/21 09:48:13;;;;;;;;;;;22.70;26.10;;;;;;482339;247;2181;-71
2021/01/21 09:50:15;;;;;;;;;;;22.80;26.10;;;;;;482406;247;974;-71
2021/01/21 09:52:16;;;;;;;;;;;22.80;26.10;;;;;;482436;247;1019;-71
2021/01/21 09:54:17;;;;;;;;;;;22.80;26.10;;;;;;482418;247;988;-71
2021/01/21 09:56:19;;;;;;;;;;;22.80;26.00;;;;;;482440;247;1039;-71
2021/01/21 09:58:20;;;;;;;;;;;22.80;26.00;;;;;;482391;247;1071;-71
2021/01/21 10:00:21;;;;;;;;;;;22.80;26.00;;;;;;482466;247;1001;-71
2021/01/21 10:02:22;;;;;;;;;;;22.80;26.00;;;;;;482330;247;1231;-71
2021/01/21 10:04:24;;;;;;;;;;;22.80;26.00;;;;;;482279;247;1222;-71
2021/01/21 10:06:25;;;;;;;;;;;22.70;26.00;;;;;;482230;247;1104;-71
2021/01/21 10:08:27;;;;;;;;;;;22.70;26.00;;;;;;482371;247;2137;-71
2021/01/21 10:10:28;;;;;;;;;;;22.70;26.00;;;;;;482439;247;1013;-71
2021/01/21 10:12:29;;;;;;;;;;;22.60;26.10;;;;;;482392;247;1317;-71
2021/01/21 10:14:30;;;;;;;;;;;22.60;26.20;;;;;;482254;247;1000;-71
2021/01/21 10:16:32;;;;;;;;;;;22.50;26.20;;;;;;482257;247;1383;-71
2021/01/21 10:18:33;;;;;;;;;;;22.50;26.30;;;;;;482311;247;1179;-71
2021/01/21 10:20:34;;;;;;;;;;;22.40;26.40;;;;;;482410;247;1128;-71
2021/01/21 10:22:35;;;;;;;;;;;22.30;26.40;;;;;;482379;247;1062;-71
2021/01/21 10:24:37;;;;;;;;;;;22.20;26.50;;;;;;482289;247;1011;-71
2021/01/21 10:26:38;;;;;;;;;;;22.10;26.50;;;;;;482422;247;1045;-71
2021/01/21 10:28:39;;;;;;;;;;;22.10;26.60;;;;;;482357;247;2208;-71
2021/01/21 10:30:41;;;;;;;;;;;22.10;26.60;;;;;;482357;247;1051;-71
2021/01/21 10:32:42;;;;;;;;;;;22.10;26.70;;;;;;482400;247;1205;-71
2021/01/21 10:34:43;;;;;;;;;;;22.00;26.70;;;;;;482480;247;1288;-72
2021/01/21 10:36:44;;;;;;;;;;;22.00;26.70;;;;;;482437;247;1122;-71
2021/01/21 10:38:46;;;;;;;;;;;22.00;26.70;;;;;;482380;247;1098;-71
2021/01/21 10:40:47;;;;;;;;;;;22.00;26.70;;;;;;482349;247;1312;-72
2021/01/21 10:42:48;;;;;;;;;;;22.10;26.60;;;;;;482347;247;1143;-71
2021/01/21 10:44:50;;;;;;;;;;;22.10;26.60;;;;;;482543;247;1238;-71
2021/01/21 10:46:51;;;;;;;;;;;22.20;26.50;;;;;;482469;247;1019;-71
2021/01/21 10:48:52;;;;;;;;;;;22.30;26.50;;;;;;482518;247;2204;-71
2021/01/21 10:50:53;;;;;;;;;;;22.30;26.40;;;;;;482426;247;981;-72
2021/01/21 10:52:55;;;;;;;;;;;22.40;26.40;;;;;;482518;247;1039;-71
2021/01/21 10:54:56;;;;;;;;;;;22.40;26.30;;;;;;482388;247;1032;-71
2021/01/21 10:56:57;;;;;;;;;;;22.50;26.30;;;;;;482451;247;1008;-71
2021/01/21 10:58:59;;;;;;;;;;;22.50;26.20;;;;;;482429;247;984;-71
2021/01/21 11:01:00;;;;;;;;;;;22.60;26.20;;;;;;482438;247;1010;-71
2021/01/21 11:03:01;;;;;;;;;;;22.60;26.20;;;;;;482349;247;1123;-72
2021/01/21 11:05:02;;;;;;;;;;;22.60;26.10;;;;;;482427;247;1215;-71
2021/01/21 11:07:04;;;;;;;;;;;22.60;26.10;;;;;;482485;247;1334;-72
2021/01/21 11:09:05;;;;;;;;;;;22.70;26.10;;;;;;482496;247;2184;-71
2021/01/21 11:11:06;;;;;;;;;;;22.70;26.00;;;;;;482477;247;972;-71
2021/01/21 11:13:07;;;;;;;;;;;22.80;26.00;;;;;;482396;247;1215;-71
2021/01/21 11:15:09;;;;;;;;;;;22.80;26.00;;;;;;482373;247;1065;-71
2021/01/21 11:17:10;;;;;;;;;;;22.80;26.00;;;;;;482356;247;1164;-71
2021/01/21 11:19:11;;;;;;;;;;;22.80;25.90;;;;;;482278;247;1153;-71
2021/01/21 11:21:12;;;;;;;;;;;22.90;25.90;;;;;;482381;247;1154;-71
2021/01/21 11:23:14;;;;;;;;;;;22.90;25.90;;;;;;482346;247;1298;-71
2021/01/21 11:25:15;;;;;;;;;;;23.00;25.90;;;;;;482301;247;1228;-71
2021/01/21 11:27:16;;;;;;;;;;;23.00;25.90;;;;;;482270;247;1020;-71
2021/01/21 11:29:18;;;;;;;;;;;23.10;25.80;;;;;;482429;247;2184;-71
2021/01/21 11:31:19;;;;;;;;;;;23.10;25.80;;;;;;482479;247;1141;-71
2021/01/21 11:33:20;;;;;;;;;;;23.10;25.80;;;;;;482451;247;1155;-73
2021/01/21 11:35:22;;;;;;;;;;;23.10;25.90;;;;;;482267;247;1215;-72
2021/01/21 11:37:23;;;;;;;;;;;23.00;26.00;;;;;;482546;247;1073;-71
2021/01/21 11:39:24;;;;;;;;;;;23.00;26.00;;;;;;482514;247;1004;-71
2021/01/21 11:41:26;;;;;;;;;;;22.90;25.90;;;;;;482405;247;1222;-72
2021/01/21 11:43:27;;;;;;;;;;;22.80;26.00;;;;;;482472;247;1238;-71
2021/01/21 11:45:30;;;;;;;;;;;22.80;26.00;;;;;;482403;247;1048;-71
2021/01/21 11:47:30;;;;;;;;;;;22.70;26.10;;;;;;482423;247;2134;-71
2021/01/21 11:49:31;;;;;;;;;;;22.70;26.10;;;;;;482317;247;2185;-71
2021/01/21 11:51:35;;;;;;;;;;;22.60;26.20;;;;;;482269;247;1284;-71
2021/01/21 11:53:36;;;;;;;;;;;22.50;26.20;;;;;;482401;247;1042;-71
2021/01/21 11:55:38;;;;;;;;;;;22.50;26.20;;;;;;482552;247;1059;-71
2021/01/21 11:57:39;;;;;;;;;;;22.40;26.30;;;;;;482524;247;1251;-71
2021/01/21 11:59:40;;;;;;;;;;;22.30;26.30;;;;;;482553;247;1061;-71